N505FF MPTO-SKBO
Flight info
| Callsign | N505FF |
|---|---|
| Flight time | N/A |
| Altitude | 41000 |
| Route | REMAL DCT KAKOL UP530 RNG UQ121 ISVAT ISVAT5E |
| Aircraft | E55P/M-SDGRWXY/LB2 |
Departure
| Time | 2026-04-28 00:09 |
|---|---|
| Airport | Tocumen International Airport (MPTO) |
Arrival
| Time | N/A |
|---|---|
| Airport | El Dorado International Airport (SKBO) |
| Time | Latitude | Longitude | Altitude | Speed | Heading |
|---|---|---|---|---|---|
| 2026-04-27 23:53 | 9.07842 | -79.38055 | 24 ft | 0 kts | 31° |
| 2026-04-28 00:03 | 9.07844 | -79.38053 | 24 ft | 3 kts | 31° |
| 2026-04-28 00:03 | 9.07848 | -79.38051 | 24 ft | 0 kts | 31° |
| 2026-04-28 00:03 | 9.07858 | -79.38063 | 25 ft | 7 kts | 273° |
| 2026-04-28 00:04 | 9.07844 | -79.38116 | 25 ft | 8 kts | 260° |
| 2026-04-28 00:04 | 9.07845 | -79.38217 | 28 ft | 14 kts | 212° |
| 2026-04-28 00:04 | 9.07709 | -79.38298 | 28 ft | 29 kts | 211° |
| 2026-04-28 00:05 | 9.07540 | -79.38402 | 28 ft | 28 kts | 211° |
| 2026-04-28 00:05 | 9.07377 | -79.38501 | 28 ft | 22 kts | 208° |
| 2026-04-28 00:05 | 9.07263 | -79.38421 | 24 ft | 22 kts | 124° |
| 2026-04-28 00:05 | 9.07184 | -79.38288 | 25 ft | 22 kts | 119° |
| 2026-04-28 00:06 | 9.07109 | -79.38155 | 23 ft | 22 kts | 136° |
| 2026-04-28 00:06 | 9.06974 | -79.38189 | 24 ft | 21 kts | 208° |
| 2026-04-28 00:06 | 9.06836 | -79.38263 | 23 ft | 24 kts | 207° |
| 2026-04-28 00:06 | 9.06684 | -79.38344 | 23 ft | 26 kts | 207° |
| 2026-04-28 00:07 | 9.06520 | -79.38434 | 23 ft | 28 kts | 210° |
| 2026-04-28 00:07 | 9.06353 | -79.38531 | 24 ft | 28 kts | 210° |
| 2026-04-28 00:07 | 9.06187 | -79.38627 | 23 ft | 27 kts | 210° |
| 2026-04-28 00:07 | 9.06022 | -79.38720 | 24 ft | 27 kts | 209° |
| 2026-04-28 00:08 | 9.05859 | -79.38813 | 23 ft | 27 kts | 210° |
| 2026-04-28 00:08 | 9.05698 | -79.38908 | 23 ft | 26 kts | 210° |
| 2026-04-28 00:08 | 9.05542 | -79.38999 | 23 ft | 26 kts | 210° |
| 2026-04-28 00:08 | 9.05438 | -79.38934 | 24 ft | 18 kts | 120° |
| 2026-04-28 00:09 | 9.05488 | -79.38847 | 24 ft | 28 kts | 29° |
| 2026-04-28 00:09 | 9.06014 | -79.38563 | 61 ft | 137 kts | 31° |
| 2026-04-28 00:09 | 9.06991 | -79.37962 | 896 ft | 187 kts | 34° |
| 2026-04-28 00:09 | 9.08093 | -79.37070 | 2118 ft | 216 kts | 59° |
| 2026-04-28 00:10 | 9.08427 | -79.35564 | 3767 ft | 228 kts | 90° |
| 2026-04-28 00:10 | 9.08346 | -79.33899 | 5320 ft | 242 kts | 92° |
| 2026-04-28 00:10 | 9.08244 | -79.32175 | 6967 ft | 249 kts | 92° |
| 2026-04-28 00:10 | 9.08124 | -79.30400 | 8499 ft | 257 kts | 94° |
| 2026-04-28 00:11 | 9.07739 | -79.28607 | 9985 ft | 266 kts | 105° |
| 2026-04-28 00:11 | 9.07129 | -79.26813 | 11400 ft | 273 kts | 106° |
| 2026-04-28 00:11 | 9.06569 | -79.24951 | 12743 ft | 279 kts | 103° |
| 2026-04-28 00:11 | 9.06058 | -79.23035 | 14017 ft | 285 kts | 103° |
| 2026-04-28 00:12 | 9.05521 | -79.21080 | 15233 ft | 292 kts | 104° |
| 2026-04-28 00:12 | 9.04955 | -79.19082 | 16394 ft | 298 kts | 104° |
| 2026-04-28 00:12 | 9.04382 | -79.17048 | 17487 ft | 304 kts | 104° |
| 2026-04-28 00:12 | 9.03800 | -79.14970 | 18540 ft | 309 kts | 104° |
| 2026-04-28 00:13 | 9.03208 | -79.12856 | 19538 ft | 315 kts | 104° |
| 2026-04-28 00:13 | 9.02605 | -79.10711 | 20484 ft | 320 kts | 104° |
| 2026-04-28 00:13 | 9.02002 | -79.08553 | 21352 ft | 327 kts | 104° |
| 2026-04-28 00:13 | 9.01368 | -79.06293 | 21898 ft | 341 kts | 104° |
| 2026-04-28 00:14 | 9.00707 | -79.03941 | 22405 ft | 354 kts | 104° |
| 2026-04-28 00:14 | 8.99999 | -79.01521 | 22901 ft | 365 kts | 108° |
| 2026-04-28 00:14 | 8.98917 | -78.99157 | 23410 ft | 376 kts | 116° |
| 2026-04-28 00:14 | 8.97583 | -78.96846 | 23911 ft | 384 kts | 118° |
| 2026-04-28 00:15 | 8.96264 | -78.94481 | 24414 ft | 389 kts | 116° |
| 2026-04-28 00:15 | 8.95060 | -78.92012 | 24916 ft | 393 kts | 114° |
| 2026-04-28 00:15 | 8.93844 | -78.89515 | 25419 ft | 397 kts | 115° |
| 2026-04-28 00:15 | 8.92551 | -78.87033 | 25921 ft | 400 kts | 116° |
| 2026-04-28 00:16 | 8.91247 | -78.84541 | 26417 ft | 402 kts | 115° |
| 2026-04-28 00:16 | 8.89972 | -78.82022 | 26921 ft | 403 kts | 115° |
| 2026-04-28 00:16 | 8.88695 | -78.79496 | 27422 ft | 403 kts | 115° |
| 2026-04-28 00:16 | 8.87401 | -78.76980 | 27930 ft | 404 kts | 116° |
| 2026-04-28 00:17 | 8.85845 | -78.74610 | 28418 ft | 406 kts | 126° |
| 2026-04-28 00:17 | 8.83910 | -78.72522 | 28914 ft | 408 kts | 135° |
| 2026-04-28 00:17 | 8.81683 | -78.70785 | 29406 ft | 411 kts | 144° |
| 2026-04-28 00:17 | 8.79165 | -78.69411 | 29901 ft | 413 kts | 153° |
| 2026-04-28 00:18 | 8.76505 | -78.68300 | 30402 ft | 413 kts | 155° |
| 2026-04-28 00:18 | 8.73863 | -78.67174 | 30900 ft | 412 kts | 154° |
| 2026-04-28 00:18 | 8.71224 | -78.66045 | 31399 ft | 412 kts | 154° |
| 2026-04-28 00:18 | 8.68568 | -78.64936 | 31897 ft | 412 kts | 155° |
| 2026-04-28 00:19 | 8.65917 | -78.63833 | 32397 ft | 411 kts | 154° |
| 2026-04-28 00:19 | 8.63275 | -78.62718 | 32901 ft | 410 kts | 154° |
| 2026-04-28 00:19 | 8.60635 | -78.61603 | 33392 ft | 411 kts | 154° |
| 2026-04-28 00:19 | 8.57994 | -78.60495 | 33893 ft | 412 kts | 154° |
| 2026-04-28 00:20 | 8.55332 | -78.59379 | 34393 ft | 415 kts | 154° |
| 2026-04-28 00:20 | 8.52689 | -78.58268 | 34887 ft | 418 kts | 154° |
| 2026-04-28 00:20 | 8.49986 | -78.57132 | 35387 ft | 422 kts | 155° |
| 2026-04-28 00:20 | 8.47270 | -78.55992 | 35887 ft | 424 kts | 155° |
| 2026-04-28 00:21 | 8.44542 | -78.54848 | 36382 ft | 425 kts | 155° |
| 2026-04-28 00:21 | 8.41807 | -78.53699 | 36884 ft | 425 kts | 155° |
| 2026-04-28 00:21 | 8.39073 | -78.52551 | 37389 ft | 424 kts | 155° |
| 2026-04-28 00:21 | 8.36354 | -78.51410 | 37880 ft | 422 kts | 155° |
| 2026-04-28 00:22 | 8.33649 | -78.50275 | 38377 ft | 419 kts | 155° |
| 2026-04-28 00:22 | 8.31002 | -78.49165 | 38866 ft | 416 kts | 154° |
| 2026-04-28 00:22 | 8.28341 | -78.48048 | 39361 ft | 412 kts | 154° |
| 2026-04-28 00:22 | 8.25700 | -78.46941 | 39856 ft | 409 kts | 154° |
| 2026-04-28 00:23 | 8.23087 | -78.45845 | 40350 ft | 405 kts | 154° |
| 2026-04-28 00:23 | 8.20502 | -78.44761 | 40830 ft | 401 kts | 154° |
| 2026-04-28 00:23 | 8.17919 | -78.43677 | 41077 ft | 403 kts | 154° |
| 2026-04-28 00:24 | 8.12668 | -78.41474 | 41166 ft | 416 kts | 155° |
| 2026-04-28 00:24 | 8.07249 | -78.39205 | 41170 ft | 427 kts | 155° |
| 2026-04-28 00:25 | 8.01701 | -78.36880 | 41177 ft | 436 kts | 155° |
| 2026-04-28 00:25 | 7.96055 | -78.34515 | 41182 ft | 442 kts | 155° |
| 2026-04-28 00:26 | 7.90336 | -78.32121 | 41182 ft | 446 kts | 155° |
| 2026-04-28 00:26 | 7.84584 | -78.29714 | 41181 ft | 449 kts | 155° |
| 2026-04-28 00:27 | 7.78841 | -78.27311 | 41185 ft | 450 kts | 155° |
| 2026-04-28 00:27 | 7.73060 | -78.24893 | 41180 ft | 450 kts | 155° |
| 2026-04-28 00:28 | 7.67261 | -78.22468 | 41183 ft | 451 kts | 155° |
| 2026-04-28 00:28 | 7.61448 | -78.20037 | 41179 ft | 452 kts | 155° |
| 2026-04-28 00:29 | 7.55674 | -78.17624 | 41179 ft | 451 kts | 155° |
| 2026-04-28 00:29 | 7.49866 | -78.15197 | 41180 ft | 451 kts | 155° |
| 2026-04-28 00:30 | 7.44065 | -78.12774 | 41180 ft | 451 kts | 155° |
| 2026-04-28 00:30 | 7.38257 | -78.10349 | 41180 ft | 451 kts | 155° |
| 2026-04-28 00:31 | 7.32450 | -78.07925 | 41181 ft | 451 kts | 155° |
| 2026-04-28 00:31 | 7.26644 | -78.05502 | 41181 ft | 451 kts | 155° |
| 2026-04-28 00:32 | 7.20876 | -78.03096 | 41181 ft | 451 kts | 155° |
| 2026-04-28 00:32 | 7.15075 | -78.00676 | 41181 ft | 451 kts | 155° |
| 2026-04-28 00:33 | 7.09614 | -77.97653 | 41182 ft | 446 kts | 140° |
| 2026-04-28 00:33 | 7.05818 | -77.94165 | 41182 ft | 445 kts | 134° |
| 2026-04-28 00:34 | 7.01322 | -77.89882 | 41183 ft | 445 kts | 134° |
| 2026-04-28 00:34 | 6.96836 | -77.85589 | 41184 ft | 445 kts | 134° |
| 2026-04-28 00:35 | 6.92348 | -77.81305 | 41182 ft | 445 kts | 134° |
| 2026-04-28 00:35 | 6.87858 | -77.77017 | 41183 ft | 445 kts | 134° |
| 2026-04-28 00:36 | 6.83395 | -77.72756 | 41183 ft | 445 kts | 134° |
| 2026-04-28 00:36 | 6.78909 | -77.68475 | 41183 ft | 445 kts | 134° |
| 2026-04-28 00:37 | 6.74416 | -77.64189 | 41183 ft | 445 kts | 134° |
| 2026-04-28 00:37 | 6.69929 | -77.59909 | 41184 ft | 445 kts | 134° |
| 2026-04-28 00:38 | 6.65437 | -77.55626 | 41184 ft | 445 kts | 134° |
| 2026-04-28 00:38 | 6.60948 | -77.51346 | 41182 ft | 445 kts | 134° |
| 2026-04-28 00:39 | 6.56455 | -77.47064 | 41182 ft | 445 kts | 134° |
| 2026-04-28 00:39 | 6.51964 | -77.42785 | 41183 ft | 445 kts | 134° |
| 2026-04-28 00:40 | 6.47500 | -77.38533 | 41183 ft | 445 kts | 134° |
| 2026-04-28 00:40 | 6.43010 | -77.34257 | 41181 ft | 445 kts | 134° |
| 2026-04-28 00:41 | 6.38517 | -77.29979 | 41182 ft | 445 kts | 134° |
| 2026-04-28 00:41 | 6.34023 | -77.25702 | 41183 ft | 445 kts | 134° |
| 2026-04-28 00:42 | 6.29532 | -77.21428 | 41182 ft | 445 kts | 134° |
| 2026-04-28 00:42 | 6.25030 | -77.17146 | 41184 ft | 445 kts | 134° |
| 2026-04-28 00:43 | 6.20565 | -77.12899 | 41184 ft | 445 kts | 134° |
| 2026-04-28 00:43 | 6.16067 | -77.08622 | 41181 ft | 445 kts | 134° |
| 2026-04-28 00:44 | 6.11575 | -77.04351 | 41182 ft | 445 kts | 134° |
| 2026-04-28 00:44 | 6.07078 | -77.00078 | 41181 ft | 445 kts | 134° |
| 2026-04-28 00:45 | 6.02582 | -76.95805 | 41182 ft | 444 kts | 134° |
| 2026-04-28 00:45 | 5.98081 | -76.91529 | 41182 ft | 445 kts | 134° |
| 2026-04-28 00:46 | 5.93613 | -76.87287 | 41182 ft | 445 kts | 134° |
| 2026-04-28 00:46 | 5.89112 | -76.83012 | 41182 ft | 445 kts | 134° |
| 2026-04-28 00:47 | 5.84608 | -76.78746 | 41183 ft | 445 kts | 134° |
| 2026-04-28 00:47 | 5.80107 | -76.74470 | 41183 ft | 445 kts | 134° |
| 2026-04-28 00:48 | 5.75610 | -76.70201 | 41184 ft | 445 kts | 134° |
| 2026-04-28 00:48 | 5.71131 | -76.65913 | 41184 ft | 444 kts | 131° |
| 2026-04-28 00:49 | 5.67640 | -76.60872 | 41181 ft | 439 kts | 114° |
| 2026-04-28 00:49 | 5.64970 | -76.55349 | 41182 ft | 439 kts | 114° |
| 2026-04-28 00:50 | 5.62310 | -76.49869 | 41184 ft | 439 kts | 114° |
| 2026-04-28 00:50 | 5.59639 | -76.44349 | 41181 ft | 439 kts | 114° |
| 2026-04-28 00:51 | 5.56965 | -76.38835 | 41181 ft | 439 kts | 114° |
| 2026-04-28 00:51 | 5.54295 | -76.33314 | 41182 ft | 439 kts | 114° |
| 2026-04-28 00:52 | 5.51619 | -76.27792 | 41183 ft | 439 kts | 114° |
| 2026-04-28 00:52 | 5.48952 | -76.22275 | 41182 ft | 439 kts | 114° |
| 2026-04-28 00:53 | 5.46290 | -76.16754 | 41183 ft | 439 kts | 114° |
| 2026-04-28 00:53 | 5.43617 | -76.11235 | 41180 ft | 439 kts | 114° |
| 2026-04-28 00:54 | 5.40954 | -76.05723 | 41182 ft | 439 kts | 114° |
| 2026-04-28 00:54 | 5.38286 | -76.00208 | 41182 ft | 439 kts | 114° |
| 2026-04-28 00:55 | 5.35636 | -75.94729 | 41183 ft | 439 kts | 114° |
| 2026-04-28 00:55 | 5.32966 | -75.89209 | 41183 ft | 439 kts | 114° |
| 2026-04-28 00:56 | 5.30297 | -75.83696 | 41183 ft | 439 kts | 114° |
| 2026-04-28 00:56 | 5.27625 | -75.78176 | 41049 ft | 442 kts | 114° |
| 2026-04-28 00:56 | 5.26272 | -75.75379 | 40449 ft | 447 kts | 114° |
| 2026-04-28 00:57 | 5.24909 | -75.72566 | 39839 ft | 448 kts | 114° |
| 2026-04-28 00:57 | 5.23548 | -75.69758 | 39244 ft | 443 kts | 114° |
| 2026-04-28 00:57 | 5.22225 | -75.67027 | 38739 ft | 429 kts | 114° |
| 2026-04-28 00:57 | 5.20952 | -75.64401 | 38248 ft | 419 kts | 114° |
| 2026-04-28 00:58 | 5.19851 | -75.61733 | 37727 ft | 410 kts | 106° |
| 2026-04-28 00:58 | 5.19181 | -75.58987 | 37179 ft | 402 kts | 98° |
| 2026-04-28 00:58 | 5.18930 | -75.56212 | 36744 ft | 396 kts | 90° |
| 2026-04-28 00:58 | 5.19078 | -75.53487 | 36399 ft | 388 kts | 82° |
| 2026-04-28 00:59 | 5.19608 | -75.50848 | 36029 ft | 383 kts | 74° |
| 2026-04-28 00:59 | 5.20492 | -75.48344 | 35639 ft | 379 kts | 66° |
| 2026-04-28 00:59 | 5.21546 | -75.45927 | 35208 ft | 376 kts | 71° |
| 2026-04-28 00:59 | 5.22205 | -75.43404 | 34808 ft | 373 kts | 78° |
| 2026-04-28 01:00 | 5.22561 | -75.40846 | 34456 ft | 369 kts | 86° |
| 2026-04-28 01:00 | 5.22443 | -75.38270 | 33747 ft | 369 kts | 96° |
| 2026-04-28 01:00 | 5.21863 | -75.35699 | 32143 ft | 391 kts | 107° |
| 2026-04-28 01:00 | 5.20890 | -75.33142 | 31466 ft | 386 kts | 110° |
| 2026-04-28 01:01 | 5.19908 | -75.30674 | 30972 ft | 378 kts | 108° |